sensor_id;sensor_type;location;lat;lon;timestamp;P1;durP1;ratioP1;P2;durP2;ratioP2
58302;SDS011;44109;52.398;7.024;2023-04-03T00:01:10;5.88;;;1.80;;
58302;SDS011;44109;52.398;7.024;2023-04-03T00:03:38;4.30;;;1.50;;
58302;SDS011;44109;52.398;7.024;2023-04-03T00:06:07;5.25;;;1.88;;
58302;SDS011;44109;52.398;7.024;2023-04-03T00:08:36;4.63;;;1.77;;
58302;SDS011;44109;52.398;7.024;2023-04-03T00:11:05;5.65;;;1.95;;
58302;SDS011;44109;52.398;7.024;2023-04-03T00:13:33;4.30;;;1.70;;
58302;SDS011;44109;52.398;7.024;2023-04-03T00:16:02;3.67;;;1.60;;
58302;SDS011;44109;52.398;7.024;2023-04-03T00:18:31;9.32;;;2.10;;
58302;SDS011;44109;52.398;7.024;2023-04-03T00:20:58;7.57;;;1.50;;
58302;SDS011;44109;52.398;7.024;2023-04-03T00:23:26;4.50;;;1.70;;
58302;SDS011;44109;52.398;7.024;2023-04-03T00:25:54;5.25;;;2.58;;
58302;SDS011;44109;52.398;7.024;2023-04-03T00:28:22;7.30;;;2.65;;
58302;SDS011;44109;52.398;7.024;2023-04-03T00:30:49;4.53;;;1.77;;
58302;SDS011;44109;52.398;7.024;2023-04-03T00:33:19;4.70;;;2.22;;
58302;SDS011;44109;52.398;7.024;2023-04-03T00:35:47;3.78;;;1.70;;
58302;SDS011;44109;52.398;7.024;2023-04-03T00:38:15;2.75;;;1.23;;
58302;SDS011;44109;52.398;7.024;2023-04-03T00:40:45;9.57;;;2.40;;
58302;SDS011;44109;52.398;7.024;2023-04-03T00:43:16;7.90;;;1.80;;
58302;SDS011;44109;52.398;7.024;2023-04-03T00:45:47;3.17;;;1.60;;
58302;SDS011;44109;52.398;7.024;2023-04-03T00:48:20;3.05;;;1.42;;
58302;SDS011;44109;52.398;7.024;2023-04-03T00:50:52;7.50;;;1.83;;
58302;SDS011;44109;52.398;7.024;2023-04-03T00:53:21;4.30;;;1.73;;
58302;SDS011;44109;52.398;7.024;2023-04-03T00:55:54;4.57;;;1.98;;
58302;SDS011;44109;52.398;7.024;2023-04-03T00:58:26;3.50;;;1.42;;
58302;SDS011;44109;52.398;7.024;2023-04-03T01:01:03;6.13;;;1.58;;
58302;SDS011;44109;52.398;7.024;2023-04-03T01:03:39;5.63;;;1.70;;
58302;SDS011;44109;52.398;7.024;2023-04-03T01:06:06;3.30;;;1.40;;
58302;SDS011;44109;52.398;7.024;2023-04-03T01:08:34;2.65;;;1.23;;
58302;SDS011;44109;52.398;7.024;2023-04-03T01:11:02;4.40;;;1.60;;
58302;SDS011;44109;52.398;7.024;2023-04-03T01:13:31;5.57;;;1.75;;
58302;SDS011;44109;52.398;7.024;2023-04-03T01:16:01;5.43;;;1.35;;
58302;SDS011;44109;52.398;7.024;2023-04-03T01:18:29;4.28;;;1.92;;
58302;SDS011;44109;52.398;7.024;2023-04-03T01:21:08;3.97;;;1.60;;
58302;SDS011;44109;52.398;7.024;2023-04-03T01:24:31;4.00;;;1.33;;
58302;SDS011;44109;52.398;7.024;2023-04-03T01:27:05;3.10;;;1.10;;
58302;SDS011;44109;52.398;7.024;2023-04-03T01:29:36;5.78;;;1.58;;
58302;SDS011;44109;52.398;7.024;2023-04-03T01:32:06;4.53;;;1.30;;
58302;SDS011;44109;52.398;7.024;2023-04-03T01:34:34;3.60;;;1.52;;
58302;SDS011;44109;52.398;7.024;2023-04-03T01:37:01;3.58;;;1.50;;
58302;SDS011;44109;52.398;7.024;2023-04-03T01:39:29;4.25;;;1.58;;
58302;SDS011;44109;52.398;7.024;2023-04-03T01:41:56;5.88;;;1.90;;
58302;SDS011;44109;52.398;7.024;2023-04-03T01:44:25;4.03;;;1.73;;
58302;SDS011;44109;52.398;7.024;2023-04-03T01:46:52;3.47;;;1.63;;
58302;SDS011;44109;52.398;7.024;2023-04-03T01:49:21;3.75;;;1.58;;
58302;SDS011;44109;52.398;7.024;2023-04-03T01:51:49;4.32;;;1.35;;
58302;SDS011;44109;52.398;7.024;2023-04-03T01:54:16;4.22;;;1.48;;
58302;SDS011;44109;52.398;7.024;2023-04-03T01:56:44;5.72;;;1.33;;
58302;SDS011;44109;52.398;7.024;2023-04-03T01:59:11;2.03;;;1.15;;
58302;SDS011;44109;52.398;7.024;2023-04-03T02:01:39;4.28;;;1.33;;
58302;SDS011;44109;52.398;7.024;2023-04-03T02:04:06;6.00;;;1.77;;
58302;SDS011;44109;52.398;7.024;2023-04-03T02:06:36;6.75;;;1.98;;
58302;SDS011;44109;52.398;7.024;2023-04-03T02:09:03;6.68;;;2.30;;
58302;SDS011;44109;52.398;7.024;2023-04-03T02:11:31;4.35;;;1.20;;
58302;SDS011;44109;52.398;7.024;2023-04-03T02:13:59;3.08;;;2.17;;
58302;SDS011;44109;52.398;7.024;2023-04-03T02:16:26;5.05;;;1.42;;
58302;SDS011;44109;52.398;7.024;2023-04-03T02:18:54;6.47;;;2.45;;
58302;SDS011;44109;52.398;7.024;2023-04-03T02:21:22;4.53;;;1.52;;
58302;SDS011;44109;52.398;7.024;2023-04-03T02:23:51;3.88;;;1.17;;
58302;SDS011;44109;52.398;7.024;2023-04-03T02:26:18;6.60;;;1.63;;
58302;SDS011;44109;52.398;7.024;2023-04-03T02:28:46;4.28;;;1.60;;
58302;SDS011;44109;52.398;7.024;2023-04-03T02:31:14;5.18;;;1.58;;
58302;SDS011;44109;52.398;7.024;2023-04-03T02:33:42;4.63;;;1.60;;
58302;SDS011;44109;52.398;7.024;2023-04-03T02:36:10;7.47;;;1.60;;
58302;SDS011;44109;52.398;7.024;2023-04-03T02:38:37;5.07;;;1.52;;
58302;SDS011;44109;52.398;7.024;2023-04-03T02:41:07;4.28;;;1.50;;
58302;SDS011;44109;52.398;7.024;2023-04-03T02:43:38;3.08;;;1.50;;
58302;SDS011;44109;52.398;7.024;2023-04-03T02:46:06;5.00;;;1.83;;
58302;SDS011;44109;52.398;7.024;2023-04-03T02:48:34;5.63;;;2.05;;
58302;SDS011;44109;52.398;7.024;2023-04-03T02:51:02;4.93;;;1.70;;
58302;SDS011;44109;52.398;7.024;2023-04-03T02:53:30;3.38;;;1.73;;
58302;SDS011;44109;52.398;7.024;2023-04-03T02:55:57;3.38;;;1.40;;
58302;SDS011;44109;52.398;7.024;2023-04-03T02:58:26;3.53;;;1.67;;
58302;SDS011;44109;52.398;7.024;2023-04-03T03:00:54;3.47;;;1.35;;
58302;SDS011;44109;52.398;7.024;2023-04-03T03:03:21;3.40;;;1.92;;
58302;SDS011;44109;52.398;7.024;2023-04-03T03:05:49;4.75;;;1.75;;
58302;SDS011;44109;52.398;7.024;2023-04-03T03:08:16;6.18;;;1.85;;
58302;SDS011;44109;52.398;7.024;2023-04-03T03:10:45;2.72;;;1.48;;
58302;SDS011;44109;52.398;7.024;2023-04-03T03:13:13;3.45;;;1.70;;
58302;SDS011;44109;52.398;7.024;2023-04-03T03:15:42;4.25;;;1.67;;
58302;SDS011;44109;52.398;7.024;2023-04-03T03:18:10;6.07;;;1.83;;
58302;SDS011;44109;52.398;7.024;2023-04-03T03:20:37;4.72;;;1.75;;
58302;SDS011;44109;52.398;7.024;2023-04-03T03:23:05;4.25;;;1.80;;
58302;SDS011;44109;52.398;7.024;2023-04-03T03:25:32;4.78;;;1.73;;
58302;SDS011;44109;52.398;7.024;2023-04-03T03:28:00;4.15;;;1.58;;
58302;SDS011;44109;52.398;7.024;2023-04-03T03:30:27;4.43;;;1.88;;
58302;SDS011;44109;52.398;7.024;2023-04-03T03:32:56;5.72;;;2.03;;
58302;SDS011;44109;52.398;7.024;2023-04-03T03:35:24;6.07;;;2.35;;
58302;SDS011;44109;52.398;7.024;2023-04-03T03:37:51;4.50;;;1.55;;
58302;SDS011;44109;52.398;7.024;2023-04-03T03:40:19;3.88;;;1.35;;
58302;SDS011;44109;52.398;7.024;2023-04-03T03:42:46;5.22;;;2.28;;
58302;SDS011;44109;52.398;7.024;2023-04-03T03:45:14;4.72;;;1.80;;
58302;SDS011;44109;52.398;7.024;2023-04-03T03:47:42;3.55;;;1.70;;
58302;SDS011;44109;52.398;7.024;2023-04-03T03:50:11;3.50;;;1.92;;
58302;SDS011;44109;52.398;7.024;2023-04-03T03:52:38;4.80;;;2.63;;
58302;SDS011;44109;52.398;7.024;2023-04-03T03:55:06;4.40;;;1.50;;
58302;SDS011;44109;52.398;7.024;2023-04-03T03:57:34;3.40;;;1.65;;
58302;SDS011;44109;52.398;7.024;2023-04-03T04:00:02;2.53;;;1.40;;
58302;SDS011;44109;52.398;7.024;2023-04-03T04:02:32;6.75;;;1.85;;
58302;SDS011;44109;52.398;7.024;2023-04-03T04:05:00;6.90;;;2.15;;
58302;SDS011;44109;52.398;7.024;2023-04-03T04:07:29;5.28;;;1.63;;
58302;SDS011;44109;52.398;7.024;2023-04-03T04:09:57;2.55;;;1.40;;
58302;SDS011;44109;52.398;7.024;2023-04-03T04:12:25;3.22;;;1.40;;
58302;SDS011;44109;52.398;7.024;2023-04-03T04:14:52;5.22;;;1.70;;
58302;SDS011;44109;52.398;7.024;2023-04-03T04:17:20;2.92;;;1.20;;
58302;SDS011;44109;52.398;7.024;2023-04-03T04:19:48;8.00;;;1.65;;
58302;SDS011;44109;52.398;7.024;2023-04-03T04:22:16;4.80;;;1.45;;
58302;SDS011;44109;52.398;7.024;2023-04-03T04:24:45;3.97;;;1.70;;
58302;SDS011;44109;52.398;7.024;2023-04-03T04:27:12;5.43;;;1.90;;
58302;SDS011;44109;52.398;7.024;2023-04-03T04:29:41;8.25;;;2.05;;
58302;SDS011;44109;52.398;7.024;2023-04-03T04:32:09;5.05;;;2.08;;
58302;SDS011;44109;52.398;7.024;2023-04-03T04:34:36;3.92;;;2.10;;
58302;SDS011;44109;52.398;7.024;2023-04-03T04:37:04;3.03;;;1.90;;
58302;SDS011;44109;52.398;7.024;2023-04-03T04:39:32;4.97;;;1.58;;
58302;SDS011;44109;52.398;7.024;2023-04-03T04:42:03;3.50;;;1.40;;
58302;SDS011;44109;52.398;7.024;2023-04-03T04:44:30;3.83;;;2.13;;
58302;SDS011;44109;52.398;7.024;2023-04-03T04:46:58;3.33;;;1.70;;
58302;SDS011;44109;52.398;7.024;2023-04-03T04:49:26;3.80;;;1.80;;
58302;SDS011;44109;52.398;7.024;2023-04-03T04:51:54;3.63;;;1.75;;
58302;SDS011;44109;52.398;7.024;2023-04-03T04:54:21;4.18;;;1.85;;
58302;SDS011;44109;52.398;7.024;2023-04-03T04:56:49;6.05;;;1.60;;
58302;SDS011;44109;52.398;7.024;2023-04-03T04:59:18;5.00;;;2.08;;
58302;SDS011;44109;52.398;7.024;2023-04-03T05:01:45;4.38;;;1.58;;
58302;SDS011;44109;52.398;7.024;2023-04-03T05:04:13;6.20;;;2.10;;
58302;SDS011;44109;52.398;7.024;2023-04-03T05:06:40;6.75;;;2.17;;
58302;SDS011;44109;52.398;7.024;2023-04-03T05:09:08;6.68;;;2.22;;
58302;SDS011;44109;52.398;7.024;2023-04-03T05:11:36;3.65;;;1.40;;
58302;SDS011;44109;52.398;7.024;2023-04-03T05:14:04;4.35;;;1.70;;
58302;SDS011;44109;52.398;7.024;2023-04-03T05:16:33;8.10;;;1.70;;
58302;SDS011;44109;52.398;7.024;2023-04-03T05:19:02;4.57;;;1.88;;
58302;SDS011;44109;52.398;7.024;2023-04-03T05:21:30;4.47;;;1.52;;
58302;SDS011;44109;52.398;7.024;2023-04-03T05:23:58;4.32;;;1.58;;
58302;SDS011;44109;52.398;7.024;2023-04-03T05:26:28;6.38;;;3.25;;
58302;SDS011;44109;52.398;7.024;2023-04-03T05:28:56;4.75;;;1.10;;
58302;SDS011;44109;52.398;7.024;2023-04-03T05:31:24;4.28;;;1.55;;
58302;SDS011;44109;52.398;7.024;2023-04-03T05:33:56;10.73;;;1.98;;
58302;SDS011;44109;52.398;7.024;2023-04-03T05:36:24;4.40;;;1.70;;
58302;SDS011;44109;52.398;7.024;2023-04-03T05:38:52;5.18;;;1.55;;
58302;SDS011;44109;52.398;7.024;2023-04-03T05:41:22;4.72;;;2.28;;
58302;SDS011;44109;52.398;7.024;2023-04-03T05:43:49;5.35;;;1.75;;
58302;SDS011;44109;52.398;7.024;2023-04-03T05:46:18;3.63;;;1.58;;
58302;SDS011;44109;52.398;7.024;2023-04-03T05:48:47;6.60;;;1.65;;
58302;SDS011;44109;52.398;7.024;2023-04-03T05:51:17;3.30;;;1.67;;
58302;SDS011;44109;52.398;7.024;2023-04-03T05:53:48;4.30;;;2.30;;
58302;SDS011;44109;52.398;7.024;2023-04-03T05:56:26;5.38;;;2.05;;
58302;SDS011;44109;52.398;7.024;2023-04-03T05:58:54;3.70;;;1.77;;
58302;SDS011;44109;52.398;7.024;2023-04-03T06:01:22;5.70;;;1.98;;
58302;SDS011;44109;52.398;7.024;2023-04-03T06:03:51;6.13;;;1.75;;
58302;SDS011;44109;52.398;7.024;2023-04-03T06:06:21;3.45;;;1.60;;
58302;SDS011;44109;52.398;7.024;2023-04-03T06:08:48;7.78;;;1.95;;
58302;SDS011;44109;52.398;7.024;2023-04-03T06:11:16;4.20;;;1.98;;
58302;SDS011;44109;52.398;7.024;2023-04-03T06:13:44;7.00;;;2.33;;
58302;SDS011;44109;52.398;7.024;2023-04-03T06:16:12;7.63;;;1.77;;
58302;SDS011;44109;52.398;7.024;2023-04-03T06:18:46;9.60;;;2.92;;
58302;SDS011;44109;52.398;7.024;2023-04-03T06:21:13;7.55;;;2.42;;
58302;SDS011;44109;52.398;7.024;2023-04-03T06:23:42;5.22;;;1.75;;
58302;SDS011;44109;52.398;7.024;2023-04-03T06:26:10;6.20;;;1.70;;
58302;SDS011;44109;52.398;7.024;2023-04-03T06:28:38;3.60;;;1.52;;
58302;SDS011;44109;52.398;7.024;2023-04-03T06:31:05;5.07;;;1.80;;
58302;SDS011;44109;52.398;7.024;2023-04-03T06:33:33;6.30;;;2.15;;
58302;SDS011;44109;52.398;7.024;2023-04-03T06:36:02;5.82;;;1.88;;
58302;SDS011;44109;52.398;7.024;2023-04-03T06:38:32;4.03;;;1.58;;
58302;SDS011;44109;52.398;7.024;2023-04-03T06:41:02;11.98;;;1.48;;
58302;SDS011;44109;52.398;7.024;2023-04-03T06:43:29;4.03;;;1.73;;
58302;SDS011;44109;52.398;7.024;2023-04-03T06:45:58;5.45;;;1.92;;
58302;SDS011;44109;52.398;7.024;2023-04-03T06:48:25;3.78;;;1.20;;
58302;SDS011;44109;52.398;7.024;2023-04-03T06:50:53;5.85;;;2.17;;
58302;SDS011;44109;52.398;7.024;2023-04-03T06:53:21;5.32;;;1.63;;
58302;SDS011;44109;52.398;7.024;2023-04-03T06:55:48;4.38;;;1.90;;
58302;SDS011;44109;52.398;7.024;2023-04-03T06:58:17;5.72;;;2.08;;
58302;SDS011;44109;52.398;7.024;2023-04-03T07:00:45;5.47;;;1.95;;
58302;SDS011;44109;52.398;7.024;2023-04-03T07:03:13;4.78;;;1.70;;
58302;SDS011;44109;52.398;7.024;2023-04-03T07:05:42;7.03;;;1.55;;
58302;SDS011;44109;52.398;7.024;2023-04-03T07:08:10;3.17;;;1.65;;
58302;SDS011;44109;52.398;7.024;2023-04-03T07:10:38;3.20;;;1.30;;
58302;SDS011;44109;52.398;7.024;2023-04-03T07:13:05;5.20;;;1.45;;
58302;SDS011;44109;52.398;7.024;2023-04-03T07:15:34;5.90;;;2.00;;
58302;SDS011;44109;52.398;7.024;2023-04-03T07:18:03;3.42;;;1.60;;
58302;SDS011;44109;52.398;7.024;2023-04-03T07:20:31;4.80;;;1.63;;
58302;SDS011;44109;52.398;7.024;2023-04-03T07:22:59;5.32;;;1.48;;
58302;SDS011;44109;52.398;7.024;2023-04-03T07:25:27;5.03;;;1.40;;
58302;SDS011;44109;52.398;7.024;2023-04-03T07:27:55;7.00;;;1.38;;
58302;SDS011;44109;52.398;7.024;2023-04-03T07:30:23;5.00;;;1.65;;
58302;SDS011;44109;52.398;7.024;2023-04-03T07:32:52;5.35;;;1.45;;
58302;SDS011;44109;52.398;7.024;2023-04-03T07:35:20;1.80;;;0.80;;
58302;SDS011;44109;52.398;7.024;2023-04-03T07:37:48;6.57;;;1.95;;
58302;SDS011;44109;52.398;7.024;2023-04-03T07:40:16;3.60;;;1.20;;
58302;SDS011;44109;52.398;7.024;2023-04-03T07:42:44;3.92;;;1.60;;
58302;SDS011;44109;52.398;7.024;2023-04-03T07:45:11;3.65;;;1.52;;
58302;SDS011;44109;52.398;7.024;2023-04-03T07:47:39;4.25;;;1.95;;
58302;SDS011;44109;52.398;7.024;2023-04-03T07:50:08;4.25;;;0.98;;
58302;SDS011;44109;52.398;7.024;2023-04-03T07:52:36;5.15;;;0.93;;
58302;SDS011;44109;52.398;7.024;2023-04-03T07:55:04;4.15;;;1.20;;
58302;SDS011;44109;52.398;7.024;2023-04-03T07:57:33;4.45;;;1.45;;
58302;SDS011;44109;52.398;7.024;2023-04-03T08:00:00;3.88;;;1.40;;
58302;SDS011;44109;52.398;7.024;2023-04-03T08:02:28;3.03;;;1.13;;
58302;SDS011;44109;52.398;7.024;2023-04-03T08:04:57;4.57;;;1.67;;
58302;SDS011;44109;52.398;7.024;2023-04-03T08:07:26;3.25;;;0.90;;
58302;SDS011;44109;52.398;7.024;2023-04-03T08:09:54;2.28;;;0.90;;
58302;SDS011;44109;52.398;7.024;2023-04-03T08:12:22;2.90;;;1.27;;
58302;SDS011;44109;52.398;7.024;2023-04-03T08:14:50;2.33;;;0.90;;
58302;SDS011;44109;52.398;7.024;2023-04-03T08:17:18;3.28;;;1.00;;
58302;SDS011;44109;52.398;7.024;2023-04-03T08:19:45;4.55;;;0.80;;
58302;SDS011;44109;52.398;7.024;2023-04-03T08:22:13;3.13;;;1.10;;
58302;SDS011;44109;52.398;7.024;2023-04-03T08:24:43;2.03;;;0.77;;
58302;SDS011;44109;52.398;7.024;2023-04-03T08:27:10;1.23;;;0.52;;
58302;SDS011;44109;52.398;7.024;2023-04-03T08:29:38;1.73;;;0.70;;
58302;SDS011;44109;52.398;7.024;2023-04-03T08:32:06;3.67;;;1.15;;
58302;SDS011;44109;52.398;7.024;2023-04-03T08:34:34;2.42;;;1.45;;
58302;SDS011;44109;52.398;7.024;2023-04-03T08:37:02;2.00;;;0.80;;
58302;SDS011;44109;52.398;7.024;2023-04-03T08:39:30;1.85;;;0.60;;
58302;SDS011;44109;52.398;7.024;2023-04-03T08:41:59;2.67;;;0.80;;
58302;SDS011;44109;52.398;7.024;2023-04-03T08:44:37;1.60;;;0.68;;
58302;SDS011;44109;52.398;7.024;2023-04-03T08:47:17;2.45;;;0.90;;
58302;SDS011;44109;52.398;7.024;2023-04-03T08:49:52;2.30;;;0.70;;
58302;SDS011;44109;52.398;7.024;2023-04-03T08:52:25;1.85;;;0.85;;
58302;SDS011;44109;52.398;7.024;2023-04-03T08:55:03;1.92;;;0.90;;
58302;SDS011;44109;52.398;7.024;2023-04-03T08:57:43;1.40;;;0.60;;
58302;SDS011;44109;52.398;7.024;2023-04-03T09:00:16;1.20;;;0.52;;
58302;SDS011;44109;52.398;7.024;2023-04-03T09:02:47;2.10;;;0.60;;
58302;SDS011;44109;52.398;7.024;2023-04-03T09:05:18;2.75;;;0.82;;
58302;SDS011;44109;52.398;7.024;2023-04-03T09:07:53;2.33;;;0.95;;
58302;SDS011;44109;52.398;7.024;2023-04-03T09:10:32;1.13;;;0.60;;
58302;SDS011;44109;52.398;7.024;2023-04-03T09:13:06;1.40;;;0.65;;
58302;SDS011;44109;52.398;7.024;2023-04-03T09:15:40;2.35;;;0.65;;
58302;SDS011;44109;52.398;7.024;2023-04-03T09:18:11;1.88;;;0.73;;
58302;SDS011;44109;52.398;7.024;2023-04-03T09:20:48;2.30;;;0.57;;
58302;SDS011;44109;52.398;7.024;2023-04-03T09:23:24;2.10;;;0.50;;
58302;SDS011;44109;52.398;7.024;2023-04-03T09:26:01;1.42;;;0.65;;
58302;SDS011;44109;52.398;7.024;2023-04-03T09:31:05;1.25;;;0.57;;
58302;SDS011;44109;52.398;7.024;2023-04-03T09:33:46;2.20;;;0.88;;
58302;SDS011;44109;52.398;7.024;2023-04-03T09:39:14;1.23;;;0.52;;
58302;SDS011;44109;52.398;7.024;2023-04-03T09:41:54;3.25;;;1.02;;
58302;SDS011;44109;52.398;7.024;2023-04-03T09:44:28;5.10;;;3.20;;
58302;SDS011;44109;52.398;7.024;2023-04-03T09:46:59;4.05;;;1.50;;
58302;SDS011;44109;52.398;7.024;2023-04-03T09:49:44;2.42;;;0.80;;
58302;SDS011;44109;52.398;7.024;2023-04-03T09:52:18;2.42;;;0.70;;
58302;SDS011;44109;52.398;7.024;2023-04-03T09:54:49;1.88;;;0.82;;
58302;SDS011;44109;52.398;7.024;2023-04-03T09:57:17;2.42;;;0.88;;
58302;SDS011;44109;52.398;7.024;2023-04-03T09:59:47;2.15;;;0.80;;
58302;SDS011;44109;52.398;7.024;2023-04-03T10:02:30;1.15;;;0.70;;
58302;SDS011;44109;52.398;7.024;2023-04-03T10:05:04;2.78;;;0.90;;
58302;SDS011;44109;52.398;7.024;2023-04-03T10:08:10;2.72;;;0.90;;
58302;SDS011;44109;52.398;7.024;2023-04-03T10:11:05;1.88;;;0.98;;
58302;SDS011;44109;52.398;7.024;2023-04-03T10:13:42;2.85;;;0.75;;
58302;SDS011;44109;52.398;7.024;2023-04-03T10:16:21;0.90;;;0.50;;
58302;SDS011;44109;52.398;7.024;2023-04-03T10:19:00;4.38;;;1.10;;
58302;SDS011;44109;52.398;7.024;2023-04-03T10:21:45;5.00;;;1.00;;
58302;SDS011;44109;52.398;7.024;2023-04-03T10:24:18;1.45;;;0.60;;
58302;SDS011;44109;52.398;7.024;2023-04-03T10:26:56;2.55;;;0.80;;
58302;SDS011;44109;52.398;7.024;2023-04-03T10:29:36;4.28;;;1.05;;
58302;SDS011;44109;52.398;7.024;2023-04-03T10:32:15;2.25;;;0.85;;
58302;SDS011;44109;52.398;7.024;2023-04-03T10:35:15;2.75;;;0.88;;
58302;SDS011;44109;52.398;7.024;2023-04-03T10:37:57;3.50;;;0.70;;
58302;SDS011;44109;52.398;7.024;2023-04-03T10:40:38;2.65;;;0.70;;
58302;SDS011;44109;52.398;7.024;2023-04-03T10:43:21;2.80;;;0.98;;
58302;SDS011;44109;52.398;7.024;2023-04-03T10:46:03;2.95;;;0.75;;
58302;SDS011;44109;52.398;7.024;2023-04-03T10:48:48;1.23;;;0.70;;
58302;SDS011;44109;52.398;7.024;2023-04-03T10:51:45;2.55;;;0.70;;
58302;SDS011;44109;52.398;7.024;2023-04-03T10:54:20;1.60;;;0.65;;
58302;SDS011;44109;52.398;7.024;2023-04-03T10:56:53;1.65;;;0.60;;
58302;SDS011;44109;52.398;7.024;2023-04-03T10:59:29;3.35;;;0.90;;
58302;SDS011;44109;52.398;7.024;2023-04-03T11:02:04;4.10;;;1.13;;
58302;SDS011;44109;52.398;7.024;2023-04-03T11:04:40;2.15;;;0.90;;
58302;SDS011;44109;52.398;7.024;2023-04-03T11:07:12;1.98;;;0.80;;
58302;SDS011;44109;52.398;7.024;2023-04-03T11:09:46;3.42;;;1.05;;
58302;SDS011;44109;52.398;7.024;2023-04-03T11:12:17;2.60;;;0.77;;
58302;SDS011;44109;52.398;7.024;2023-04-03T11:14:52;1.83;;;0.70;;
58302;SDS011;44109;52.398;7.024;2023-04-03T11:17:26;3.33;;;0.93;;
58302;SDS011;44109;52.398;7.024;2023-04-03T11:20:06;3.40;;;0.98;;
58302;SDS011;44109;52.398;7.024;2023-04-03T11:22:47;1.85;;;0.73;;
58302;SDS011;44109;52.398;7.024;2023-04-03T11:25:21;2.80;;;0.93;;
58302;SDS011;44109;52.398;7.024;2023-04-03T11:27:54;3.03;;;1.10;;
58302;SDS011;44109;52.398;7.024;2023-04-03T11:30:27;2.65;;;0.80;;
58302;SDS011;44109;52.398;7.024;2023-04-03T11:33:15;3.03;;;1.30;;
58302;SDS011;44109;52.398;7.024;2023-04-03T11:35:57;2.95;;;1.05;;
58302;SDS011;44109;52.398;7.024;2023-04-03T11:38:33;2.30;;;0.90;;
58302;SDS011;44109;52.398;7.024;2023-04-03T11:41:07;3.42;;;1.50;;
58302;SDS011;44109;52.398;7.024;2023-04-03T11:43:39;2.47;;;1.08;;
58302;SDS011;44109;52.398;7.024;2023-04-03T11:46:09;2.58;;;1.10;;
58302;SDS011;44109;52.398;7.024;2023-04-03T11:48:50;3.42;;;1.05;;
58302;SDS011;44109;52.398;7.024;2023-04-03T12:12:42;5.95;;;1.17;;
58302;SDS011;44109;52.398;7.024;2023-04-03T12:15:25;4.55;;;1.17;;
58302;SDS011;44109;52.398;7.024;2023-04-03T12:24:40;4.28;;;0.90;;
58302;SDS011;44109;52.398;7.024;2023-04-03T12:27:15;3.13;;;0.88;;
58302;SDS011;44109;52.398;7.024;2023-04-03T12:29:53;2.30;;;0.95;;
58302;SDS011;44109;52.398;7.024;2023-04-03T12:35:43;2.35;;;1.05;;
58302;SDS011;44109;52.398;7.024;2023-04-03T12:38:39;3.38;;;1.15;;
58302;SDS011;44109;52.398;7.024;2023-04-03T12:41:27;2.88;;;1.10;;
58302;SDS011;44109;52.398;7.024;2023-04-03T12:44:16;4.05;;;1.02;;
58302;SDS011;44109;52.398;7.024;2023-04-03T12:47:22;1.98;;;0.70;;
58302;SDS011;44109;52.398;7.024;2023-04-03T12:49:55;2.38;;;0.88;;
58302;SDS011;44109;52.398;7.024;2023-04-03T12:52:30;4.40;;;1.17;;
58302;SDS011;44109;52.398;7.024;2023-04-03T12:55:12;1.92;;;0.60;;
58302;SDS011;44109;52.398;7.024;2023-04-03T12:57:42;2.17;;;1.00;;
58302;SDS011;44109;52.398;7.024;2023-04-03T13:00:22;2.40;;;0.90;;
58302;SDS011;44109;52.398;7.024;2023-04-03T13:02:58;2.72;;;1.02;;
58302;SDS011;44109;52.398;7.024;2023-04-03T13:05:27;2.78;;;0.80;;
58302;SDS011;44109;52.398;7.024;2023-04-03T13:07:58;3.35;;;0.95;;
58302;SDS011;44109;52.398;7.024;2023-04-03T13:10:32;3.28;;;1.00;;
58302;SDS011;44109;52.398;7.024;2023-04-03T13:13:18;1.40;;;0.70;;
58302;SDS011;44109;52.398;7.024;2023-04-03T13:15:47;3.03;;;1.00;;
58302;SDS011;44109;52.398;7.024;2023-04-03T13:18:26;2.78;;;0.85;;
58302;SDS011;44109;52.398;7.024;2023-04-03T13:21:01;2.55;;;0.98;;
58302;SDS011;44109;52.398;7.024;2023-04-03T13:23:34;1.50;;;0.80;;
58302;SDS011;44109;52.398;7.024;2023-04-03T13:26:08;1.63;;;0.70;;
58302;SDS011;44109;52.398;7.024;2023-04-03T13:28:38;2.95;;;1.20;;
58302;SDS011;44109;52.398;7.024;2023-04-03T13:31:08;4.53;;;1.00;;
58302;SDS011;44109;52.398;7.024;2023-04-03T13:33:55;2.08;;;0.93;;
58302;SDS011;44109;52.398;7.024;2023-04-03T13:36:29;1.75;;;0.70;;
58302;SDS011;44109;52.398;7.024;2023-04-03T13:39:03;3.72;;;1.10;;
58302;SDS011;44109;52.398;7.024;2023-04-03T13:41:36;1.50;;;0.82;;
58302;SDS011;44109;52.398;7.024;2023-04-03T13:44:25;2.55;;;0.95;;
58302;SDS011;44109;52.398;7.024;2023-04-03T13:46:59;1.70;;;0.90;;
58302;SDS011;44109;52.398;7.024;2023-04-03T13:49:43;2.28;;;1.02;;
58302;SDS011;44109;52.398;7.024;2023-04-03T13:52:22;2.08;;;0.90;;
58302;SDS011;44109;52.398;7.024;2023-04-03T13:54:55;2.45;;;1.05;;
58302;SDS011;44109;52.398;7.024;2023-04-03T13:57:28;1.98;;;1.05;;
58302;SDS011;44109;52.398;7.024;2023-04-03T13:59:56;4.22;;;0.80;;
58302;SDS011;44109;52.398;7.024;2023-04-03T14:02:29;2.03;;;1.00;;
58302;SDS011;44109;52.398;7.024;2023-04-03T14:05:00;1.98;;;1.08;;
58302;SDS011;44109;52.398;7.024;2023-04-03T14:07:34;1.85;;;1.15;;
58302;SDS011;44109;52.398;7.024;2023-04-03T14:10:01;1.80;;;0.80;;
58302;SDS011;44109;52.398;7.024;2023-04-03T14:12:31;1.70;;;0.88;;
58302;SDS011;44109;52.398;7.024;2023-04-03T14:15:06;2.80;;;1.20;;
58302;SDS011;44109;52.398;7.024;2023-04-03T14:17:45;1.70;;;0.80;;
58302;SDS011;44109;52.398;7.024;2023-04-03T14:20:14;2.03;;;1.10;;
58302;SDS011;44109;52.398;7.024;2023-04-03T14:22:44;2.30;;;0.95;;
58302;SDS011;44109;52.398;7.024;2023-04-03T14:25:12;2.92;;;0.80;;
58302;SDS011;44109;52.398;7.024;2023-04-03T14:27:42;2.83;;;1.30;;
58302;SDS011;44109;52.398;7.024;2023-04-03T14:30:14;3.83;;;1.20;;
58302;SDS011;44109;52.398;7.024;2023-04-03T14:32:45;2.20;;;1.10;;
58302;SDS011;44109;52.398;7.024;2023-04-03T14:35:13;1.83;;;0.80;;
58302;SDS011;44109;52.398;7.024;2023-04-03T14:37:41;1.52;;;0.95;;
58302;SDS011;44109;52.398;7.024;2023-04-03T14:40:11;3.28;;;1.80;;
58302;SDS011;44109;52.398;7.024;2023-04-03T14:42:44;1.40;;;0.73;;
58302;SDS011;44109;52.398;7.024;2023-04-03T14:45:14;2.05;;;0.77;;
58302;SDS011;44109;52.398;7.024;2023-04-03T14:47:44;6.10;;;0.98;;
58302;SDS011;44109;52.398;7.024;2023-04-03T14:50:16;3.60;;;1.20;;
58302;SDS011;44109;52.398;7.024;2023-04-03T14:52:47;3.17;;;1.30;;
58302;SDS011;44109;52.398;7.024;2023-04-03T14:55:16;2.65;;;1.00;;
58302;SDS011;44109;52.398;7.024;2023-04-03T14:57:49;2.70;;;0.82;;
58302;SDS011;44109;52.398;7.024;2023-04-03T15:00:18;1.30;;;0.93;;
58302;SDS011;44109;52.398;7.024;2023-04-03T15:02:48;3.03;;;0.95;;
58302;SDS011;44109;52.398;7.024;2023-04-03T15:05:17;2.40;;;0.98;;
58302;SDS011;44109;52.398;7.024;2023-04-03T15:07:47;2.88;;;0.90;;
58302;SDS011;44109;52.398;7.024;2023-04-03T15:10:19;2.35;;;0.70;;
58302;SDS011;44109;52.398;7.024;2023-04-03T15:12:51;2.13;;;0.82;;
58302;SDS011;44109;52.398;7.024;2023-04-03T15:15:20;4.38;;;0.93;;
58302;SDS011;44109;52.398;7.024;2023-04-03T15:17:51;2.20;;;0.90;;
58302;SDS011;44109;52.398;7.024;2023-04-03T15:20:22;2.83;;;1.35;;
58302;SDS011;44109;52.398;7.024;2023-04-03T15:22:53;3.30;;;1.00;;
58302;SDS011;44109;52.398;7.024;2023-04-03T15:25:22;2.78;;;1.20;;
58302;SDS011;44109;52.398;7.024;2023-04-03T15:27:52;4.47;;;1.75;;
58302;SDS011;44109;52.398;7.024;2023-04-03T15:30:21;2.67;;;1.30;;
58302;SDS011;44109;52.398;7.024;2023-04-03T15:32:49;3.22;;;1.23;;
58302;SDS011;44109;52.398;7.024;2023-04-03T15:35:18;6.32;;;1.83;;
58302;SDS011;44109;52.398;7.024;2023-04-03T15:37:46;5.13;;;1.52;;
58302;SDS011;44109;52.398;7.024;2023-04-03T15:40:15;2.20;;;1.23;;
58302;SDS011;44109;52.398;7.024;2023-04-03T15:42:42;3.85;;;0.95;;
58302;SDS011;44109;52.398;7.024;2023-04-03T15:45:11;5.30;;;2.95;;
58302;SDS011;44109;52.398;7.024;2023-04-03T15:47:40;3.80;;;1.60;;
58302;SDS011;44109;52.398;7.024;2023-04-03T15:50:09;4.38;;;1.33;;